Mostar, Bosna i Hercegovina

07:13 PM CEST on Listopad 01, 2016 (GMT +0200)
Mostar | | Change Station

Elev 154 ft 43.29 °N, 17.84 °E | Updated 13 minutes ago

Clear
Vedro
66 °F
Feels Like 66 °F
S
6
Vjetar Varijabla smjera vjetra Vjetar from JI

Danas
High -- | Low -- °F
--% Chance of Precip.
Jučer
High -- | Low -- °F
Precip. -- u
Pritisak 30.01 u
Vidljivost -9999.0 milja
Oblaci
Točka rose 54 °F
Vlažnost 64%
Kiša 0.00 u
Visina snijega Not available.
6:46 AM 6:29 PM
Mladi Mjesec, 0% visible
METAR LQMO 011700Z 13005KT CAVOK 19/12 Q1016
Pritisak 30.01 u
Vidljivost -9999.0 milja
Oblaci
Točka rose 54 °F
Vlažnost 64%
Kiša 0.00 u
Visina snijega Not available.
6:46 AM 6:29 PM
Mladi Mjesec, 0% visible
METAR LQMO 011700Z 13005KT CAVOK 19/12 Q1016

10-Day Weather Forecast

No radar image for this location.
×

Almanac

Astronomija

Oct. 01, 2016 Izlazak Zalazak
Trenutno vrijeme
Civilni sumrak
Nautički sumrak
Astronomski sumrak
Moon
Duljina trajanja vidljive svjetlosti
Duljina dana
Tomorrow will be .
, % of the Moon is Illuminated

Današnji ekstremi

Country Highs Country Lows

Community

WunderPhotos

Upload Photos

1,942,963 photos uploaded!

WunderBlog® & News

Nearby

Kvalitet zraka

  Kvalitet zraka AQ Index Zagadjenje
Not available.

Visina snijega

Station Depth Visina

Earthquake Activity

Grad Distance Mag. Time & Date
Minimum magnitude displayed is 2.5.

Coastal Water Temperatures

Mjesto Temperatura

Stations

Nearby Weather Stations

Lokacija stanice Temp. Subjektivni osjećaj Točka rose Vlažnost Vjetar Precip. Elev Ažurirano Tip